Accueil
METAR-TAF:

METAR-TAF

Aéroports :

Chibougamau, Québec, Canada

Aéroport de Chibougamau-Chapais

latitude: 49-46N, longitude: 074-32W, altitude: 388 m

Observation

Le bulletin a été fait il y a 26 minutes, à 02:00 UTC
Vent calme
Température -17°C
Humidité 84%
Pression 1034 hPa
Visibilité: 14.5 km
Ciel clair

METAR: CYMT 230200Z AUTO 00000KT 9SM CLR M17/M19 A3054 RMK SLP387

Heure: 21:26 (02:26 UTC)

Prévision

Le bulletin a été fait il y a 8 heures et 48 minutes, à 17:38 UTC
Prévision valable du 22 à 18 UTC au 23 à 01 UTC
Vent 8 kt de ouest/sud-ouest
Visibilité: 10 km
Nuages épars à une hauteur de 2000 ft
Temporairement
du 22 à 18 UTC au 22 à 20 UTC
Nuages fragmentés à une hauteur de 2000 ft
Evoluant progressivement
du 22 à 22 UTC au 22 à 24 UTC
Vent 3 kt de direction variable

TAF: CYMT 221738Z 2218/2301 25008KT P6SM SCT020 TEMPO 2218/2220 BKN020 BECMG 2222/2224 VRB03KT RMK FCST BASED ON AUTO OBS. NXT FCST WILL BE ISSUED AT 231245Z

Observations et prévisions météorologiques de plus de 4000 aéroports (messages METAR et TAF).

Les stations disponibles sont représentées par des disques jaunes et rouges sur la carte.

Passer la souris dessus pour voir le nom de la station.

Cliquer dessus pour voir les observations et prévisions météorologiques.

Pour changer de carte: cliquez sur les boutons verts avec une croix noire pour zoomer, sur le bouton vert avec un tiret pour effectuer un zoom arrière, ou sur les flèches vertes pour les cartes adjacentes.


METAR-TAF: